Time;durP1;ratioP1;P1;durP2;ratioP2;P2;SDS_P1;SDS_P2;PMS_P1;PMS_P2;Temp;Humidity;BMP_temperature;BMP_pressure;BME280_temperature;BME280_humidity;BME280_pressure;Samples;Min_cycle;Max_cycle;Signal;HPM_P1;HPM_P2
2022/11/11 00:01:54;;;;;;;;;;;;;;;11.32;98.02;102781.84;5020103;28;20220;-71
2022/11/11 00:04:19;;;;;;;;;;;;;;;11.32;98.14;102789.72;5019928;28;20147;-71
2022/11/11 00:06:45;;;;;;;;;;;;;;;11.31;98.09;102790.59;5020372;28;19917;-71
2022/11/11 00:09:10;;;;;;;;;;;;;;;11.30;97.80;102788.88;5019669;28;19917;-71
2022/11/11 00:11:36;;;;;;;;;;;;;;;11.29;98.06;102800.25;5020126;28;20255;-71
2022/11/11 00:14:01;;;;;;;;;;;;;;;11.29;97.81;102802.88;5020201;28;19925;-71
2022/11/11 00:25:04;;;;;;;;;;;;;;;11.29;98.18;102805.50;5030444;28;19945;-71
2022/11/11 00:27:23;;;;;;;;;;;;;;;11.26;97.91;102809.03;5024755;28;20012;-70
2022/11/11 00:29:49;;;;;;;;;;;;;;;11.25;98.16;102798.56;5024058;28;19913;-71
2022/11/11 00:32:23;;;;;;;;;;;;;;;11.25;98.33;102795.94;5024156;28;19917;-71
2022/11/11 00:37:36;;;;;;;;;;;;;;;11.25;98.81;102793.31;5023892;28;19971;-71
2022/11/11 00:40:02;;;;;;;;;;;;;;;11.24;98.51;102795.06;5024068;28;19917;-71
2022/11/11 00:42:28;;;;;;;;;;;;;;;11.25;98.40;102795.94;5024372;28;19909;-71
2022/11/11 00:44:53;;;;;;;;;;;;;;;11.24;98.51;102792.44;5023383;28;19921;-71
2022/11/11 00:52:50;;;;;;;;;;;;;;;11.20;97.90;102789.88;5024031;28;19915;-71
2022/11/11 00:55:16;;;;;;;;;;;;;;;11.19;97.97;102777.63;5023625;28;19910;-71
2022/11/11 00:57:41;;;;;;;;;;;;;;;11.18;97.96;102770.66;5023898;28;19921;-71
2022/11/11 01:00:06;;;;;;;;;;;;;;;11.18;98.05;102768.91;5023502;28;19918;-71
2022/11/11 01:02:32;;;;;;;;;;;;;;;11.16;98.23;102775.94;5023787;28;19920;-71
2022/11/11 01:04:57;;;;;;;;;;;;;;;11.16;98.43;102777.69;5023290;28;19959;-71
2022/11/11 01:07:22;;;;;;;;;;;;;;;11.16;98.58;102783.78;5049632;28;20297;-71
2022/11/11 01:09:47;;;;;;;;;;;;;;;11.16;98.31;102775.06;5023139;28;19991;-71
2022/11/11 01:12:13;;;;;;;;;;;;;;;11.15;98.23;102771.56;5020533;28;19921;-71
2022/11/11 01:14:38;;;;;;;;;;;;;;;11.16;98.33;102767.19;5022975;28;19914;-71
2022/11/11 01:17:06;;;;;;;;;;;;;;;11.14;98.13;102767.22;5023158;28;20133;-71
2022/11/11 01:19:31;;;;;;;;;;;;;;;11.13;97.87;102762.84;5023480;28;19923;-71
2022/11/11 01:21:57;;;;;;;;;;;;;;;11.11;98.06;102770.75;5021451;28;19913;-71
2022/11/11 01:24:22;;;;;;;;;;;;;;;11.10;98.00;102765.53;5023103;28;19918;-71
2022/11/11 01:26:47;;;;;;;;;;;;;;;11.09;97.96;102769.88;5023221;28;20124;-71
2022/11/11 01:29:13;;;;;;;;;;;;;;;11.08;98.41;102764.69;5023015;28;19913;-71
2022/11/11 01:31:38;;;;;;;;;;;;;;;11.07;98.20;102765.56;5021803;28;19964;-71
2022/11/11 01:34:03;;;;;;;;;;;;;;;11.06;98.14;102762.06;5023125;28;19921;-71
2022/11/11 01:36:28;;;;;;;;;;;;;;;11.05;98.24;102762.94;5022753;28;19917;-71
2022/11/11 01:38:55;;;;;;;;;;;;;;;11.06;98.35;102763.81;5023129;28;19972;-71
2022/11/11 01:41:31;;;;;;;;;;;;;;;11.05;98.45;102769.94;5022779;28;19909;-71
2022/11/11 01:43:56;;;;;;;;;;;;;;;11.04;98.10;102765.56;5022706;28;19910;-71
2022/11/11 01:46:24;;;;;;;;;;;;;;;11.03;98.45;102766.47;5022664;28;19928;-71
2022/11/11 01:51:39;;;;;;;;;;;;;;;11.00;98.32;102783.09;5022927;28;19960;-71
2022/11/11 01:54:11;;;;;;;;;;;;;;;10.99;98.34;102773.50;5022234;28;19909;-71
2022/11/11 01:56:37;;;;;;;;;;;;;;;11.00;98.37;102771.75;5022132;28;19909;-71
2022/11/11 01:59:05;;;;;;;;;;;;;;;10.99;98.51;102770.91;5022042;28;19927;-71
2022/11/11 02:01:31;;;;;;;;;;;;;;;10.99;98.31;102763.03;5022596;28;19909;-71
2022/11/11 02:06:43;;;;;;;;;;;;;;;10.98;98.35;102765.66;5022623;28;19947;-71
2022/11/11 02:09:09;;;;;;;;;;;;;;;10.97;98.30;102766.53;5022058;28;19913;-71
2022/11/11 02:14:35;;;;;;;;;;;;;;;10.95;98.40;102761.31;5015903;28;20146;-71
2022/11/11 02:17:01;;;;;;;;;;;;;;;10.94;98.36;102760.44;5021571;28;19909;-71
2022/11/11 02:19:45;;;;;;;;;;;;;;;10.93;98.26;102756.09;5022174;28;19959;-71
2022/11/11 02:22:12;;;;;;;;;;;;;;;10.94;98.32;102759.59;5021469;28;20171;-71
2022/11/11 02:24:38;;;;;;;;;;;;;;;10.94;98.55;102759.59;5021722;28;19944;-73
2022/11/11 02:27:04;;;;;;;;;;;;;;;10.93;98.76;102756.09;5021860;28;19960;-73
2022/11/11 02:29:30;;;;;;;;;;;;;;;10.93;98.62;102756.09;5021209;28;19967;-73
2022/11/11 02:31:55;;;;;;;;;;;;;;;10.92;98.42;102764.84;5021602;28;19928;-73
2022/11/11 02:34:27;;;;;;;;;;;;;;;10.94;98.49;102763.06;5021568;28;20105;-73
2022/11/11 02:36:52;;;;;;;;;;;;;;;10.93;98.61;102770.94;5021758;28;19972;-73
2022/11/11 02:39:17;;;;;;;;;;;;;;;10.93;98.81;102769.22;5021656;28;19955;-73
2022/11/11 02:41:58;;;;;;;;;;;;;;;10.91;98.30;102771.00;5021839;28;20247;-73
2022/11/11 02:44:23;;;;;;;;;;;;;;;10.90;98.60;102768.38;5021773;28;20246;-73
2022/11/11 02:46:48;;;;;;;;;;;;;;;10.89;98.62;102772.72;5021659;28;19917;-73
2022/11/11 02:49:14;;;;;;;;;;;;;;;10.90;98.62;102761.38;5030113;28;20019;-73
2022/11/11 02:51:39;;;;;;;;;;;;;;;10.89;98.80;102761.38;5022035;28;19925;-73
2022/11/11 02:54:04;;;;;;;;;;;;;;;10.90;98.86;102768.38;5022213;28;19913;-73
2022/11/11 02:57:15;;;;;;;;;;;;;;;10.90;98.77;102766.63;5021984;28;19905;-73
2022/11/11 02:59:15;;;;;;;;;;;;;;;10.89;98.58;102764.88;5020691;28;20145;-73
2022/11/11 03:01:40;;;;;;;;;;;;;;;10.88;98.36;102757.91;5021915;28;19917;-73
2022/11/11 03:04:05;;;;;;;;;;;;;;;10.88;98.43;102751.81;5021317;28;20244;-73
2022/11/11 03:06:31;;;;;;;;;;;;;;;10.88;98.42;102757.03;5021995;28;19917;-73
2022/11/11 03:08:56;;;;;;;;;;;;;;;10.87;98.62;102764.03;5021836;28;19917;-73
2022/11/11 03:11:27;;;;;;;;;;;;;;;10.87;98.73;102763.16;5020609;28;19925;-73
2022/11/11 03:13:53;;;;;;;;;;;;;;;10.86;98.50;102772.78;5021512;28;19925;-73
2022/11/11 03:19:03;;;;;;;;;;;;;;;10.83;98.23;102771.94;5018063;28;20182;-76
2022/11/11 03:21:28;;;;;;;;;;;;;;;10.80;98.09;102770.22;5017668;28;19948;-74
2022/11/11 03:23:53;;;;;;;;;;;;;;;10.79;98.10;102773.75;5017678;28;20093;-74
2022/11/11 03:26:18;;;;;;;;;;;;;;;10.78;98.40;102765.88;5017559;28;19917;-74
2022/11/11 03:28:44;;;;;;;;;;;;;;;10.79;98.75;102767.59;5017530;28;19988;-74
2022/11/11 03:31:09;;;;;;;;;;;;;;;10.78;98.27;102772.00;5017321;28;19909;-74
2022/11/11 03:33:34;;;;;;;;;;;;;;;10.77;98.49;102770.28;5017578;28;19948;-74
2022/11/11 03:36:00;;;;;;;;;;;;;;;10.76;98.15;102774.63;5017072;28;19954;-74
2022/11/11 03:38:25;;;;;;;;;;;;;;;10.77;98.38;102772.88;5017453;28;20292;-74
2022/11/11 03:40:55;;;;;;;;;;;;;;;10.76;98.60;102763.28;5017468;28;19956;-74
2022/11/11 03:43:21;;;;;;;;;;;;;;;10.76;98.63;102758.91;5016920;28;19913;-74
2022/11/11 03:45:47;;;;;;;;;;;;;;;10.76;98.69;102774.63;5017192;28;20109;-74
2022/11/11 03:48:12;;;;;;;;;;;;;;;10.76;98.75;102769.38;5016988;28;20012;-74
2022/11/11 03:50:38;;;;;;;;;;;;;;;10.76;98.68;102782.47;5017479;28;19921;-74
2022/11/11 03:53:03;;;;;;;;;;;;;;;10.77;98.54;102780.75;5016666;28;19913;-74
2022/11/11 03:55:28;;;;;;;;;;;;;;;10.76;98.60;102779.88;5021039;28;19921;-74
2022/11/11 03:57:54;;;;;;;;;;;;;;;10.77;98.50;102788.63;5023507;28;20140;-74
2022/11/11 04:00:23;;;;;;;;;;;;;;;10.78;98.67;102786.84;5023768;28;19963;-74
2022/11/11 04:11:10;;;;;;;;;;;;;;;10.74;98.48;102801.75;5020090;28;19977;-74
2022/11/11 04:16:19;;;;;;;;;;;;;;;10.74;98.82;102796.50;5023423;28;19975;-74
2022/11/11 04:21:44;;;;;;;;;;;;;;;10.73;98.67;102800.88;5023874;28;19951;-74
2022/11/11 04:27:04;;;;;;;;;;;;;;;10.67;98.27;102779.97;5023620;28;19924;-74
2022/11/11 04:29:30;;;;;;;;;;;;;;;10.67;98.61;102782.56;5023602;28;19917;-74
2022/11/11 04:34:40;;;;;;;;;;;;;;;10.67;98.33;102781.72;5023614;28;20114;-74
2022/11/11 04:37:05;;;;;;;;;;;;;;;10.67;98.52;102787.81;5023460;28;19920;-74
2022/11/11 04:42:14;;;;;;;;;;;;;;;10.65;98.63;102773.88;5023253;28;19951;-74
2022/11/11 04:47:24;;;;;;;;;;;;;;;10.62;98.55;102763.41;5023880;28;19924;-74
2022/11/11 04:49:49;;;;;;;;;;;;;;;10.63;98.74;102764.31;5023624;28;19909;-74
2022/11/11 04:52:26;;;;;;;;;;;;;;;10.61;98.76;102760.84;5023504;28;19909;-74
2022/11/11 04:57:43;;;;;;;;;;;;;;;10.61;98.73;102753.84;5023333;28;20112;-74
2022/11/11 05:00:09;;;;;;;;;;;;;;;10.61;98.75;102758.22;5023566;28;19913;-74
2022/11/11 05:05:18;;;;;;;;;;;;;;;10.61;99.07;102766.06;5023182;28;19995;-74
2022/11/11 05:10:27;;;;;;;;;;;;;;;10.58;98.33;102764.34;5020299;28;19980;-74
2022/11/11 05:12:52;;;;;;;;;;;;;;;10.57;98.46;102768.72;5019828;28;19926;-74
2022/11/11 05:26:34;;;;;;;;;;;;;;;10.55;98.70;102766.97;5013141;28;19917;-74
2022/11/11 05:28:59;;;;;;;;;;;;;;;10.55;98.50;102773.09;5019413;28;19940;-74
2022/11/11 05:31:24;;;;;;;;;;;;;;;10.54;98.64;102770.50;5019605;28;19972;-74
2022/11/11 05:33:49;;;;;;;;;;;;;;;10.54;98.82;102779.22;5019801;28;19984;-74
2022/11/11 05:36:15;;;;;;;;;;;;;;;10.53;98.52;102774.88;5019157;28;19921;-74
2022/11/11 05:38:40;;;;;;;;;;;;;;;10.51;98.42;102774.03;5015318;28;20256;-74
2022/11/11 05:41:06;;;;;;;;;;;;;;;10.50;98.33;102781.91;5018993;28;20112;-74
2022/11/11 05:43:32;;;;;;;;;;;;;;;10.51;98.43;102789.75;5019753;28;19921;-74
2022/11/11 05:45:57;;;;;;;;;;;;;;;10.50;98.65;102785.38;5018299;28;19917;-74
2022/11/11 05:48:22;;;;;;;;;;;;;;;10.51;98.73;102784.50;5018453;28;19931;-74
2022/11/11 05:50:47;;;;;;;;;;;;;;;10.50;98.87;102785.38;5018929;28;20213;-74
2022/11/11 05:53:12;;;;;;;;;;;;;;;10.52;98.99;102790.59;5019115;28;20193;-74
2022/11/11 05:55:38;;;;;;;;;;;;;;;10.50;98.93;102790.63;5019744;28;19956;-74
2022/11/11 05:58:03;;;;;;;;;;;;;;;10.50;99.10;102793.22;5033883;28;19932;-74
2022/11/11 06:00:28;;;;;;;;;;;;;;;10.50;99.28;102805.47;5019172;28;19921;-74
2022/11/11 06:02:54;;;;;;;;;;;;;;;10.49;98.86;102807.19;5018708;28;19976;-74
2022/11/11 06:05:19;;;;;;;;;;;;;;;10.49;99.06;102807.19;5018969;28;20217;-74
2022/11/11 06:07:44;;;;;;;;;;;;;;;10.50;99.22;102808.09;5019058;28;19910;-74
2022/11/11 06:13:09;;;;;;;;;;;;;;;10.49;98.79;102809.81;5012067;28;19933;-74
2022/11/11 06:15:38;;;;;;;;;;;;;;;10.49;98.89;102806.34;5018613;28;19956;-74
2022/11/11 06:18:04;;;;;;;;;;;;;;;10.49;98.85;102811.56;5018262;28;20004;-74
2022/11/11 06:20:30;;;;;;;;;;;;;;;10.49;98.52;102814.19;5017801;28;19948;-74
2022/11/11 06:22:55;;;;;;;;;;;;;;;10.48;98.71;102812.47;5020769;28;20113;-74
2022/11/11 06:28:08;;;;;;;;;;;;;;;10.48;98.83;102812.47;5018233;28;19967;-74
2022/11/11 06:30:34;;;;;;;;;;;;;;;10.46;98.51;102809.88;5018183;28;19913;-74
2022/11/11 06:32:59;;;;;;;;;;;;;;;10.45;98.48;102823.84;5017951;28;19917;-74
2022/11/11 06:35:24;;;;;;;;;;;;;;;10.45;98.91;102815.97;5018882;28;19987;-74
2022/11/11 06:37:49;;;;;;;;;;;;;;;10.45;99.19;102817.72;5018134;28;19916;-74
2022/11/11 06:40:15;;;;;;;;;;;;;;;10.45;99.08;102817.72;5018234;28;20167;-74
2022/11/11 06:42:40;;;;;;;;;;;;;;;10.43;98.69;102825.59;5018470;28;20043;-74
2022/11/11 06:45:05;;;;;;;;;;;;;;;10.42;98.67;102821.22;5016068;28;20024;-74
2022/11/11 06:47:31;;;;;;;;;;;;;;;10.43;98.84;102812.50;5016281;28;20169;-74
2022/11/11 06:49:56;;;;;;;;;;;;;;;10.43;98.94;102811.66;5017255;28;19956;-74
2022/11/11 06:52:21;;;;;;;;;;;;;;;10.44;99.07;102814.25;5017641;28;19989;-74
2022/11/11 06:54:46;;;;;;;;;;;;;;;10.44;99.31;102826.47;5018178;28;19932;-74
2022/11/11 06:57:12;;;;;;;;;;;;;;;10.44;99.34;102819.50;5016575;28;19921;-74
2022/11/11 06:59:37;;;;;;;;;;;;;;;10.44;99.30;102824.72;5014645;28;20101;-74
2022/11/11 07:02:02;;;;;;;;;;;;;;;10.44;99.08;102822.13;5027307;28;19909;-74
2022/11/11 07:04:27;;;;;;;;;;;;;;;10.44;98.47;102821.22;5051602;28;19990;-76
2022/11/11 07:06:53;;;;;;;;;;;;;;;10.43;98.88;102822.97;5036878;28;19912;-76
2022/11/11 07:09:18;;;;;;;;;;;;;;;10.39;97.79;102831.75;5033040;28;19917;-76
2022/11/11 07:11:43;;;;;;;;;;;;;;;10.39;98.60;102834.38;5037579;28;20231;-76
2022/11/11 07:14:08;;;;;;;;;;;;;;;10.37;98.36;102839.63;5024779;28;19921;-76
2022/11/11 07:16:33;;;;;;;;;;;;;;;10.35;98.18;102846.63;5017136;28;19921;-76
2022/11/11 07:18:59;;;;;;;;;;;;;;;10.33;97.86;102837.03;5018373;28;19967;-76
2022/11/11 07:21:24;;;;;;;;;;;;;;;10.33;98.46;102837.91;5024043;28;19940;-76
2022/11/11 07:23:49;;;;;;;;;;;;;;;10.33;98.78;102837.03;5036702;28;20111;-76
2022/11/11 07:26:14;;;;;;;;;;;;;;;10.33;98.45;102837.91;5036940;28;20219;-76
2022/11/11 07:28:40;;;;;;;;;;;;;;;10.33;98.91;102842.25;5037325;28;19917;-76
2022/11/11 07:31:05;;;;;;;;;;;;;;;10.31;97.72;102849.25;5035244;28;19916;-76
2022/11/11 07:33:30;;;;;;;;;;;;;;;10.29;98.18;102846.63;5024645;28;20317;-76
2022/11/11 07:35:55;;;;;;;;;;;;;;;10.30;98.66;102848.38;5036796;28;20399;-76
2022/11/11 07:38:20;;;;;;;;;;;;;;;10.31;98.63;102850.13;5032319;28;19987;-76
2022/11/11 07:40:46;;;;;;;;;;;;;;;10.32;98.82;102854.50;5017845;28;19917;-76
2022/11/11 07:43:11;;;;;;;;;;;;;;;10.32;98.79;102854.50;5020351;28;19926;-76
2022/11/11 07:45:36;;;;;;;;;;;;;;;10.32;98.47;102862.34;5016359;28;19917;-76
2022/11/11 07:48:01;;;;;;;;;;;;;;;10.32;98.67;102861.50;5015652;28;19917;-76
2022/11/11 07:50:27;;;;;;;;;;;;;;;10.32;98.73;102861.50;5016230;28;19917;-76
2022/11/11 07:52:52;;;;;;;;;;;;;;;10.31;98.68;102859.75;5016033;28;19917;-76
2022/11/11 07:55:18;;;;;;;;;;;;;;;10.30;98.38;102871.94;5015307;28;19921;-76
2022/11/11 07:57:43;;;;;;;;;;;;;;;10.28;98.46;102859.75;5016389;28;19976;-76
2022/11/11 08:00:09;;;;;;;;;;;;;;;10.28;98.42;102872.84;5015121;28;19913;-76
2022/11/11 08:02:34;;;;;;;;;;;;;;;10.27;98.52;102855.38;5014989;28;19945;-76
2022/11/11 08:04:59;;;;;;;;;;;;;;;10.27;98.82;102869.34;5015388;28;19944;-76
2022/11/11 08:07:24;;;;;;;;;;;;;;;10.25;98.69;102878.09;5016154;28;19937;-76
2022/11/11 08:09:50;;;;;;;;;;;;;;;10.24;98.79;102885.09;5015739;28;19913;-76
2022/11/11 08:14:59;;;;;;;;;;;;;;;10.24;98.90;102892.94;5015538;28;19996;-76
2022/11/11 08:17:24;;;;;;;;;;;;;;;10.24;98.95;102887.72;5016523;28;19921;-77
2022/11/11 08:19:49;;;;;;;;;;;;;;;10.25;99.20;102891.19;5002436;28;19991;-76
2022/11/11 08:22:15;;;;;;;;;;;;;;;10.26;99.11;102903.38;5016674;28;19917;-76
2022/11/11 08:24:40;;;;;;;;;;;;;;;10.25;99.10;102910.38;5017903;28;19909;-76
2022/11/11 08:27:05;;;;;;;;;;;;;;;10.27;99.11;102905.13;5014731;28;19967;-77
2022/11/11 08:29:30;;;;;;;;;;;;;;;10.27;98.80;102913.00;5016266;28;20282;-76
2022/11/11 08:31:56;;;;;;;;;;;;;;;10.26;99.14;102921.72;5015565;28;20108;-76
2022/11/11 08:34:21;;;;;;;;;;;;;;;10.28;99.61;102922.59;5014973;28;20317;-76
2022/11/11 08:36:47;;;;;;;;;;;;;;;10.28;99.41;102918.22;5013809;28;19924;-76
2022/11/11 08:39:12;;;;;;;;;;;;;;;10.29;99.08;102925.19;5022724;28;20258;-77
2022/11/11 08:41:37;;;;;;;;;;;;;;;10.30;99.43;102926.94;5008655;28;19956;-77
2022/11/11 08:44:03;;;;;;;;;;;;;;;10.30;99.42;102924.31;5024197;28;19964;-76
2022/11/11 08:46:29;;;;;;;;;;;;;;;10.31;99.70;102928.69;5030364;28;19913;-76
2022/11/11 08:48:54;;;;;;;;;;;;;;;10.31;99.50;102926.06;5030262;28;19972;-76
2022/11/11 08:51:19;;;;;;;;;;;;;;;10.32;99.61;102933.06;5031862;28;19944;-76
2022/11/11 08:53:45;;;;;;;;;;;;;;;10.32;99.46;102929.59;5020270;28;19909;-76
2022/11/11 08:56:11;;;;;;;;;;;;;;;10.32;99.35;102926.97;5039331;28;19917;-77
2022/11/11 08:58:36;;;;;;;;;;;;;;;10.31;99.18;102927.84;5016896;28;19922;-76
2022/11/11 09:01:02;;;;;;;;;;;;;;;10.32;99.04;102924.34;5038144;28;20327;-76
2022/11/11 09:03:29;;;;;;;;;;;;;;;10.31;98.85;102930.44;5026661;28;19951;-76
2022/11/11 09:05:54;;;;;;;;;;;;;;;10.31;99.30;102930.44;5030975;28;19923;-76
2022/11/11 09:08:19;;;;;;;;;;;;;;;10.29;99.14;102938.28;5022990;28;19940;-76
2022/11/11 09:10:44;;;;;;;;;;;;;;;10.30;99.15;102942.66;5021081;28;19952;-76
2022/11/11 09:13:10;;;;;;;;;;;;;;;10.30;99.21;102939.16;5026900;28;19960;-77
2022/11/11 09:15:35;;;;;;;;;;;;;;;10.31;99.53;102941.78;5035557;28;20115;-76
2022/11/11 09:18:02;;;;;;;;;;;;;;;10.31;99.57;102941.78;5028386;28;19908;-76
2022/11/11 09:20:27;;;;;;;;;;;;;;;10.32;99.52;102943.53;5039172;28;19913;-76
2022/11/11 09:22:53;;;;;;;;;;;;;;;10.34;99.71;102954.00;5038429;28;20174;-76
2022/11/11 09:25:18;;;;;;;;;;;;;;;10.34;99.42;102965.34;5026500;28;19980;-76
2022/11/11 09:27:52;;;;;;;;;;;;;;;10.33;98.98;102966.25;5026932;28;19909;-77
2022/11/11 09:30:17;;;;;;;;;;;;;;;10.32;99.55;102958.41;5009998;28;20227;-76
2022/11/11 09:32:42;;;;;;;;;;;;;;;10.34;99.52;102957.50;5017964;28;19944;-76
2022/11/11 09:35:07;;;;;;;;;;;;;;;10.35;99.59;102955.72;5022303;28;20182;-76
2022/11/11 09:37:33;;;;;;;;;;;;;;;10.35;99.62;102960.97;5029105;28;20235;-76
2022/11/11 09:39:58;;;;;;;;;;;;;;;10.34;99.13;102961.88;5037849;28;19917;-76
2022/11/11 09:42:38;;;;;;;;;;;;;;;10.34;99.26;102969.72;5036265;28;19960;-76
2022/11/11 09:45:09;;;;;;;;;;;;;;;10.34;99.41;102974.97;5029482;28;19905;-76
2022/11/11 09:47:51;;;;;;;;;;;;;;;10.34;99.66;102972.34;5027344;28;19921;-76
2022/11/11 09:50:20;;;;;;;;;;;;;;;10.35;99.92;102979.31;5003582;28;20112;-76
2022/11/11 09:52:52;;;;;;;;;;;;;;;10.35;99.74;102980.19;5034274;28;20155;-76
2022/11/11 09:55:21;;;;;;;;;;;;;;;10.36;99.55;102979.31;5032222;28;19912;-76
2022/11/11 09:57:49;;;;;;;;;;;;;;;10.37;99.65;102980.19;5021540;28;19956;-76
2022/11/11 10:00:20;;;;;;;;;;;;;;;10.36;99.10;102988.91;5038649;28;19952;-77
2022/11/11 10:02:47;;;;;;;;;;;;;;;10.36;99.66;102989.78;5037160;28;19984;-76
2022/11/11 10:05:15;;;;;;;;;;;;;;;10.37;99.83;102994.16;5025730;28;19925;-77
2022/11/11 10:07:40;;;;;;;;;;;;;;;10.38;99.69;102990.63;5036197;28;19920;-77
2022/11/11 10:10:21;;;;;;;;;;;;;;;10.39;99.97;102996.78;5022419;28;19916;-76
2022/11/11 10:12:53;;;;;;;;;;;;;;;10.39;99.86;103002.00;5033904;28;20223;-76
2022/11/11 10:15:19;;;;;;;;;;;;;;;10.39;99.57;103002.00;5022239;28;19940;-77
2022/11/11 10:18:03;;;;;;;;;;;;;;;10.40;99.23;103002.88;5031680;28;20010;-76
2022/11/11 10:20:30;;;;;;;;;;;;;;;10.38;99.04;103010.72;5022453;28;20053;-76
2022/11/11 10:23:08;;;;;;;;;;;;;;;10.37;99.42;103007.25;5019951;28;20235;-76
2022/11/11 10:25:33;;;;;;;;;;;;;;;10.40;99.79;103021.22;5035103;28;19917;-76
2022/11/11 10:28:00;;;;;;;;;;;;;;;10.41;99.91;103020.34;5034830;28;19976;-76
2022/11/11 10:30:27;;;;;;;;;;;;;;;10.42;99.55;103016.81;5024532;28;19909;-76
2022/11/11 10:33:13;;;;;;;;;;;;;;;10.43;99.95;103014.19;5037937;28;19974;-77
2022/11/11 10:35:40;;;;;;;;;;;;;;;10.43;99.99;103015.97;4969182;28;19964;-77
2022/11/11 10:38:21;;;;;;;;;;;;;;;10.46;99.82;103018.53;5021496;28;19917;-77
2022/11/11 10:40:53;;;;;;;;;;;;;;;10.46;99.81;103014.19;5029208;28;19924;-76
2022/11/11 10:43:26;;;;;;;;;;;;;;;10.48;100.00;103014.19;5030294;28;19929;-76
2022/11/11 10:45:57;;;;;;;;;;;;;;;10.48;99.38;103019.44;5018131;28;19909;-77
2022/11/11 10:48:28;;;;;;;;;;;;;;;10.48;99.44;103020.28;5023795;28;19948;-77
2022/11/11 10:50:55;;;;;;;;;;;;;;;10.49;99.43;103023.78;5029713;28;19917;-77
2022/11/11 10:53:35;;;;;;;;;;;;;;;10.49;99.54;103016.78;5031771;28;19909;-76
2022/11/11 10:56:03;;;;;;;;;;;;;;;10.49;98.89;103013.28;5023953;28;19958;-76
2022/11/11 10:58:36;;;;;;;;;;;;;;;10.48;99.10;103014.19;5037695;28;19913;-76
2022/11/11 11:01:02;;;;;;;;;;;;;;;10.47;99.35;103013.31;5033839;28;19909;-76
2022/11/11 11:03:31;;;;;;;;;;;;;;;10.48;99.65;103015.06;5027992;28;20408;-76
2022/11/11 11:06:02;;;;;;;;;;;;;;;10.49;99.43;103008.06;5025628;28;19941;-76
2022/11/11 11:08:43;;;;;;;;;;;;;;;10.50;99.51;103013.28;5027576;28;19912;-76
2022/11/11 11:11:34;;;;;;;;;;;;;;;10.51;99.69;103009.81;5016938;28;19963;-76
2022/11/11 11:14:02;;;;;;;;;;;;;;;10.53;99.73;103004.53;5027687;28;19923;-76
2022/11/11 11:16:43;;;;;;;;;;;;;;;10.55;100.00;103008.00;5024748;28;19941;-76
2022/11/11 11:19:25;;;;;;;;;;;;;;;10.55;100.00;103011.53;5036991;28;19924;-76
2022/11/11 11:21:58;;;;;;;;;;;;;;;10.57;99.82;103014.13;5022671;28;19925;-76
2022/11/11 11:24:27;;;;;;;;;;;;;;;10.57;99.97;103012.38;5037272;28;19948;-76
2022/11/11 11:26:54;;;;;;;;;;;;;;;10.60;100.00;103008.00;5029667;28;19913;-77
2022/11/11 11:29:41;;;;;;;;;;;;;;;10.61;99.94;103005.38;5020575;28;19917;-77
2022/11/11 11:32:29;;;;;;;;;;;;;;;10.62;99.98;103001.84;5023065;28;19925;-77
2022/11/11 11:34:55;;;;;;;;;;;;;;;10.64;100.00;103005.38;5002587;28;20243;-77
2022/11/11 11:37:22;;;;;;;;;;;;;;;10.65;100.00;102996.59;5007888;28;19917;-76
2022/11/11 11:39:47;;;;;;;;;;;;;;;10.67;99.99;102986.13;5010344;28;19913;-76
2022/11/11 11:42:26;;;;;;;;;;;;;;;10.66;100.00;102993.13;5012690;28;19913;-76
2022/11/11 11:44:52;;;;;;;;;;;;;;;10.68;99.97;102993.97;5014967;28;19973;-76
2022/11/11 11:47:35;;;;;;;;;;;;;;;10.69;100.00;102994.84;5013420;28;19913;-76
2022/11/11 11:50:20;;;;;;;;;;;;;;;10.70;100.00;102996.59;5009474;28;19984;-76
2022/11/11 11:52:45;;;;;;;;;;;;;;;10.71;100.00;102996.59;5011517;28;19917;-76
2022/11/11 11:55:14;;;;;;;;;;;;;;;10.72;100.00;102997.44;5014396;28;20160;-76
2022/11/11 11:57:39;;;;;;;;;;;;;;;10.72;99.98;102985.19;5017278;28;19947;-76
2022/11/11 12:00:12;;;;;;;;;;;;;;;10.73;99.88;102980.81;5017321;28;19917;-76
2022/11/11 12:02:52;;;;;;;;;;;;;;;10.74;100.00;102983.44;5014190;28;19925;-77
2022/11/11 12:05:17;;;;;;;;;;;;;;;10.75;100.00;102981.66;5014737;28;20009;-76
2022/11/11 12:07:51;;;;;;;;;;;;;;;10.78;100.00;102983.41;5020668;28;19909;-77
2022/11/11 12:10:26;;;;;;;;;;;;;;;10.79;100.00;102986.03;5015269;28;19913;-76
2022/11/11 12:13:00;;;;;;;;;;;;;;;10.79;100.00;102978.16;5016610;28;19964;-77
2022/11/11 12:15:28;;;;;;;;;;;;;;;10.80;100.00;102979.91;5027199;28;19917;-77
2022/11/11 12:18:15;;;;;;;;;;;;;;;10.82;100.00;102978.13;5019961;28;19956;-77
2022/11/11 12:20:43;;;;;;;;;;;;;;;10.83;100.00;102979.88;5021412;28;19905;-77
2022/11/11 12:23:34;;;;;;;;;;;;;;;10.84;100.00;102975.50;5020675;28;19921;-76
2022/11/11 12:26:08;;;;;;;;;;;;;;;10.85;100.00;102972.88;5015529;28;19916;-76
2022/11/11 12:28:39;;;;;;;;;;;;;;;10.86;100.00;102971.09;5021494;28;19924;-77
2022/11/11 12:31:14;;;;;;;;;;;;;;;10.87;100.00;102978.09;5021021;28;19975;-75
2022/11/11 12:33:45;;;;;;;;;;;;;;;10.88;100.00;102980.72;5022106;28;19976;-77
2022/11/11 12:36:20;;;;;;;;;;;;;;;10.89;100.00;102969.34;4995082;28;19925;-77
2022/11/11 12:38:54;;;;;;;;;;;;;;;10.90;100.00;102970.22;4998913;28;19925;-76
2022/11/11 12:41:28;;;;;;;;;;;;;;;10.92;100.00;102968.47;5017404;28;19913;-76
2022/11/11 12:44:01;;;;;;;;;;;;;;;10.93;100.00;102971.06;5019204;28;20148;-77
2022/11/11 12:46:38;;;;;;;;;;;;;;;10.93;100.00;102971.06;5019238;28;19917;-77
2022/11/11 12:49:09;;;;;;;;;;;;;;;10.95;100.00;102966.69;5017408;28;19909;-76
2022/11/11 12:51:35;;;;;;;;;;;;;;;10.97;100.00;102966.69;5020542;28;19945;-77
2022/11/11 12:54:12;;;;;;;;;;;;;;;10.98;100.00;102967.53;5025430;28;19908;-77
2022/11/11 12:56:45;;;;;;;;;;;;;;;11.00;99.87;102971.00;5030292;28;19921;-77
2022/11/11 12:59:17;;;;;;;;;;;;;;;11.01;99.98;102963.13;5022473;28;19917;-77
2022/11/11 13:01:54;;;;;;;;;;;;;;;11.03;99.81;102973.63;5036883;28;19908;-77
2022/11/11 13:04:34;;;;;;;;;;;;;;;11.04;99.59;102973.59;5028499;28;19984;-76
2022/11/11 13:07:02;;;;;;;;;;;;;;;11.05;99.77;102977.09;5038858;28;19992;-76
2022/11/11 13:09:47;;;;;;;;;;;;;;;11.06;99.97;102977.09;5016474;28;19924;-77
2022/11/11 13:12:16;;;;;;;;;;;;;;;11.07;99.60;102970.94;5012275;28;19922;-77
2022/11/11 13:14:49;;;;;;;;;;;;;;;11.09;99.30;102970.94;5028370;28;19939;-77
2022/11/11 13:17:15;;;;;;;;;;;;;;;11.10;99.30;102970.91;5039048;28;19912;-77
2022/11/11 13:19:54;;;;;;;;;;;;;;;11.11;99.35;102964.81;5023818;28;19964;-77
2022/11/11 13:22:22;;;;;;;;;;;;;;;11.13;99.53;102968.28;5019535;28;20160;-77
2022/11/11 13:24:48;;;;;;;;;;;;;;;11.15;99.21;102970.84;5028735;28;19913;-77
2022/11/11 13:27:37;;;;;;;;;;;;;;;11.16;99.20;102967.38;5023294;28;19917;-77
2022/11/11 13:30:05;;;;;;;;;;;;;;;11.17;98.63;102966.50;5017383;28;20204;-77
2022/11/11 13:32:53;;;;;;;;;;;;;;;11.19;98.73;102966.47;5039448;28;20204;-77
2022/11/11 13:35:27;;;;;;;;;;;;;;;11.20;99.08;102969.06;5013956;28;19920;-77
2022/11/11 13:37:53;;;;;;;;;;;;;;;11.21;99.05;102964.72;5037595;28;19909;-77
2022/11/11 13:40:39;;;;;;;;;;;;;;;11.23;98.70;102978.69;5023725;28;20184;-76
2022/11/11 13:43:13;;;;;;;;;;;;;;;11.23;99.13;102970.81;5017289;28;19921;-77
2022/11/11 13:45:40;;;;;;;;;;;;;;;11.24;99.09;102976.06;5019485;28;19928;-76
2022/11/11 13:48:06;;;;;;;;;;;;;;;11.25;98.67;102971.66;5022427;28;19932;-77
2022/11/11 13:50:35;;;;;;;;;;;;;;;11.24;98.23;102976.06;5024869;28;20193;-76
2022/11/11 13:53:02;;;;;;;;;;;;;;;11.26;98.41;102973.38;5029555;28;19983;-76
2022/11/11 13:55:31;;;;;;;;;;;;;;;11.28;98.73;102967.25;5025852;28;20143;-77
2022/11/11 13:57:56;;;;;;;;;;;;;;;11.27;98.63;102957.63;5035872;28;20123;-76
2022/11/11 14:00:21;;;;;;;;;;;;;;;11.29;98.89;102963.75;5018809;28;19920;-77
2022/11/11 14:02:47;;;;;;;;;;;;;;;11.30;98.54;102962.00;5028254;28;19908;-74